Acton, Indiana
Current Conditions -  °F | °C
As of 9:53 PM on Friday 31 Oct 2014 (Local Time) from KGEZ Reporting Station
Light Snow Light Snow  
Wind Chill: 24°   Ceiling: 1300
Heat Index: 36°   Visibility: 5mi
Dew Point: 32°   Wind: 24mph
Humidity: 86%   Direction: 350°N
Pressure: 30.09"   Gusts: 33mph
Location:  39.6613°N, 85.9949°W
Report Text: KGEZ 010153Z AUTO 35021G29KT 5SM -SN BR BKN013 OVC020 02/00 A3009 RMK AO2 PK WND 35031/0109 UPE0058SNB0058 SLP194 P0002 T00220000
Loading
Personal Weather Stations






























Interactive Weather Map
Tropical Storm Tracking
New forecast layout! Learn more

10-Day Weather Forecast

Advertisements
Track Severe Weather on mobile